• Join FlightAware (Why Join?)
  • Login
  • US Flag 
07:50PM EST


 

Airport Tracker/Info


-or-


 

Live Flight TrackerFlight Track Log ✈ N95445 ✈ 20-Oct-2013 ✈ KTDZ - 1G3

Flight Track Log - Related Links

Times and Time Zones

All times are in EDT time to prevent confusion due to time zone crossing. See the N95445 flight status page for this flight to view local times or setup timezone preferences in your user account.

Time Position Orientation Groundspeed Altitude Reporting Facility
EDT Latitude Longitude Course Direction KTS MPH feet Rate Location/Type
10:38AM 41.6608 -83.3561 104° East 112 129 5,400  Level Cleveland Center
10:39AM 41.6481 -83.3203 116° Southeast 110 127 5,400  Level Cleveland Center
10:40AM 41.6392 -83.2814 107° East 110 127 5,400  Level Cleveland Center
10:41AM 41.6250 -83.2364 113° Southeast 111 128 5,400  Level Cleveland Center
10:42AM 41.5049 -83.1683 102° East  Level Estimated
10:42AM 41.6133 -83.1992 113° Southeast 109 125 5,400  Level Cleveland Center
10:43AM 41.4947 -83.1161 104° East  Level FlightAware Approximate
10:43AM 41.6022 -83.1639 113° Southeast 109 125 5,400  Level Cleveland Center
10:44AM 41.5828 -83.1275 126° Southeast 104 120 5,400  Level Cleveland Center
10:45AM 41.5675 -83.0931 121° Southeast 105 121 5,400  Level Cleveland Center
10:46AM 41.5586 -83.0522 106° East 112 129 5,400  Level Cleveland Center
10:47AM 41.5489 -83.0122 108° East 113 130 5,400  Level Cleveland Center
10:48AM 41.5361 -82.9758 115° Southeast 107 123 5,500 60 Climbing Cleveland Center
10:48AM 41.5386 -82.9742 27° Northeast 109 125 5,500 -240 Level Cleveland Center
10:49AM 41.5314 -82.9583 121° Southeast 108 124 5,400 -120 Descending Cleveland Center
10:49AM 41.5308 -82.9358 92° East 107 123 5,400 60 Level Cleveland Center
10:50AM 41.5272 -82.9183 105° East 108 124 5,500 60 Climbing Cleveland Center
10:50AM 41.5228 -82.8967 105° East 108 124 5,500 -120 Level Cleveland Center
10:51AM 41.5167 -82.8772 113° Southeast 114 131 5,400 -120 Descending Cleveland Center
10:51AM 41.5128 -82.8481 100° East 114 131 5,400  Level Cleveland Center
10:52AM 41.5125 -82.8347 92° East 117 135 5,400  Level Cleveland Center
10:52AM 41.5139 -82.8031 87° East 117 135 5,400  Level Cleveland Center
10:53AM 41.5128 -82.7900 96° East 120 138 5,400  Level Cleveland Center
10:53AM 41.5150 -82.7589 85° East 118 136 5,400  Level Cleveland Center
10:54AM 41.5128 -82.7481 105° East 116 133 5,400  Level Cleveland Center
10:54AM 41.5069 -82.7186 105° East 114 131 5,400  Level Cleveland Center
10:56AM 41.4742 -82.6936 150° Southeast 91 105 5,400  Level Cleveland Center
10:56AM 41.4608 -82.6750 134° Southeast 99 114 5,400  Level Cleveland Center
10:57AM 41.4556 -82.6681 135° Southeast 113 130 5,400  Level Cleveland Center
10:57AM 41.4444 -82.6422 120° Southeast 104 120 5,400  Level Cleveland Center
10:58AM 41.4400 -82.6344 127° Southeast 111 128 5,400  Level Cleveland Center
10:58AM 41.4278 -82.5997 115° Southeast 108 124 5,400  Level Cleveland Center
10:59AM 41.4247 -82.5983 161° South 109 125 5,400 -300 Level Cleveland Center
10:59AM 41.4111 -82.5675 120° Southeast 106 122 5,100 -480 Descending Cleveland Center
11:00AM 41.4069 -82.5644 151° Southeast 106 122 4,900 -240 Descending Cleveland Center
11:00AM 41.3956 -82.5331 116° Southeast 107 123 4,900  Level Cleveland Center
11:01AM 41.3933 -82.5314 151° Southeast 108 124 4,900  Level Cleveland Center
11:02AM 41.3858 -82.4947 105° East 107 123 4,900  Level Cleveland Center
11:02AM 41.3869 -82.4911 68° East 112 129 4,900 -600 Level Cleveland Center
11:03AM 41.3822 -82.4506 99° East 115 132 4,300 -720 Descending Cleveland Center
11:03AM 41.3825 -82.4486 79° East 120 138 4,200 -660 Descending Cleveland Center
11:04AM 41.3828 -82.4039 90° East 118 136 3,600 -420 Descending Cleveland Center
11:05AM 41.3694 -82.3681 116° Southeast 98 113 3,400 -120 Descending Cleveland Center
11:06AM 41.3597 -82.3286 108° East 103 119 3,400  Level Cleveland Center
11:07AM 41.3492 -82.2950 113° Southeast 102 117 3,400  Level Cleveland Center
11:07AM 41.3494 -82.2928 81° East 103 119 3,400  Level Cleveland Center
11:08AM 41.3400 -82.2600 111° Southeast 101 116 3,400  Level Cleveland Center
11:08AM 41.3397 -82.2575 98° East 102 117 3,400  Level Cleveland Center
11:09AM 41.3283 -82.2272 117° Southeast 101 116 3,400  Level Cleveland Center
11:09AM 41.3286 -82.2236 84° East 100 115 3,400  Level Cleveland Center
11:10AM 41.3169 -82.1919 116° Southeast 101 116 3,400  Level Cleveland Center
11:10AM 41.3164 -82.1903 114° Southeast 100 115 3,400  Level Cleveland Center
11:11AM 41.3039 -82.1547 115° Southeast 103 119 3,400  Level Cleveland Center
11:12AM 41.2919 -82.1236 117° Southeast 100 115 3,400  Level Cleveland Center
11:12AM 41.2928 -82.1206 70° East 102 117 3,400  Level Cleveland Center
11:13AM 41.2756 -82.0850 123° Southeast 98 113 3,400  Level Cleveland Center
11:14AM 41.2644 -82.0606 121° Southeast 101 116 3,400  Level Cleveland Center
11:14AM 41.2614 -82.0525 117° Southeast 99 114 3,400  Level Cleveland Center
11:15AM 41.2483 -82.0300 128° Southeast 100 115 3,400  Level Cleveland Center
11:15AM 41.2472 -82.0203 99° East 100 115 3,400  Level Cleveland Center
11:16AM 41.2347 -81.9972 126° Southeast 105 121 3,400  Level Cleveland Center
11:16AM 41.2314 -81.9883 117° Southeast 101 116 3,400 60 Level Cleveland Center
11:17AM 41.2192 -81.9614 121° Southeast 102 117 3,500 60 Climbing Cleveland Center
11:17AM 41.2169 -81.9550 115° Southeast 103 119 3,500  Level Cleveland Center
11:19AM 41.2006 -81.8914 109° East 114 131 3,500  Level Cleveland Center
11:19AM 41.1994 -81.8844 102° East 108 124 3,500 -120 Level Cleveland Center
11:20AM 41.1969 -81.8336 94° East 114 131 3,400  Descending Cleveland Center
11:21AM 41.1869 -81.7942 109° East 115 132 3,500  Climbing Cleveland Center
11:22AM 41.1756 -81.7592 113° Southeast 107 123 3,400 -60 Descending Cleveland Center
11:23AM 41.1683 -81.7217 104° East 105 121 3,400  Level Cleveland Center
11:24AM 41.1661 -81.6778 94° East 114 131 3,400  Level Cleveland Center
11:25AM 41.1617 -81.6347 98° East 117 135 3,400  Level Cleveland Center
11:26AM 41.1592 -81.5894 94° East 117 135 3,400  Level Cleveland Center
11:28AM 41.1631 -81.5423 84° East  Level FlightAware Approximate
11:35AM 41.1514 -81.4151 90° East  Level Estimated
11:36AM 41.1514 -81.4151 90° East  Level Estimated
11:37AM 41.1514 -81.4151 90° East  Level Estimated